sensor_id;sensor_type;location;lat;lon;timestamp;temperature;humidity
9385;DHT22;4732;49.340;10.886;2023-08-21T03:04:26;22.20;99.90
9385;DHT22;4732;49.340;10.886;2023-08-21T03:06:51;22.10;99.90
9385;DHT22;4732;49.340;10.886;2023-08-21T03:09:17;22.10;99.90
9385;DHT22;4732;49.340;10.886;2023-08-21T03:11:43;22.00;99.90
9385;DHT22;4732;49.340;10.886;2023-08-21T03:14:08;22.10;99.90
9385;DHT22;4732;49.340;10.886;2023-08-21T03:16:33;22.00;99.90
9385;DHT22;4732;49.340;10.886;2023-08-21T03:19:00;22.00;99.90
9385;DHT22;4732;49.340;10.886;2023-08-21T03:21:26;21.90;99.90
9385;DHT22;4732;49.340;10.886;2023-08-21T03:23:55;21.90;99.90
9385;DHT22;4732;49.340;10.886;2023-08-21T03:26:21;21.90;99.90
9385;DHT22;4732;49.340;10.886;2023-08-21T03:28:47;22.00;99.90
9385;DHT22;4732;49.340;10.886;2023-08-21T03:31:12;22.00;99.90
9385;DHT22;4732;49.340;10.886;2023-08-21T03:33:38;22.10;99.90
9385;DHT22;4732;49.340;10.886;2023-08-21T03:36:03;22.10;99.90
9385;DHT22;4732;49.340;10.886;2023-08-21T03:38:29;22.10;99.90
9385;DHT22;4732;49.340;10.886;2023-08-21T03:40:55;22.00;99.90
9385;DHT22;4732;49.340;10.886;2023-08-21T03:43:20;22.00;99.90
9385;DHT22;4732;49.340;10.886;2023-08-21T03:45:46;22.00;99.90
9385;DHT22;4732;49.340;10.886;2023-08-21T03:48:11;21.90;99.90
9385;DHT22;4732;49.340;10.886;2023-08-21T03:50:38;22.10;99.90
9385;DHT22;4732;49.340;10.886;2023-08-21T03:53:04;22.00;99.90
9385;DHT22;4732;49.340;10.886;2023-08-21T03:55:29;21.90;99.90
9385;DHT22;4732;49.340;10.886;2023-08-21T03:57:55;21.80;99.90
9385;DHT22;4732;49.340;10.886;2023-08-21T04:00:20;21.80;99.90
9385;DHT22;4732;49.340;10.886;2023-08-21T04:02:46;21.80;99.90
9385;DHT22;4732;49.340;10.886;2023-08-21T04:05:11;21.70;99.90
9385;DHT22;4732;49.340;10.886;2023-08-21T04:07:37;21.70;99.90
9385;DHT22;4732;49.340;10.886;2023-08-21T04:10:03;21.70;99.90
9385;DHT22;4732;49.340;10.886;2023-08-21T04:12:29;21.70;99.90
9385;DHT22;4732;49.340;10.886;2023-08-21T04:14:54;21.80;99.90
9385;DHT22;4732;49.340;10.886;2023-08-21T04:17:23;21.80;99.90
9385;DHT22;4732;49.340;10.886;2023-08-21T04:19:50;21.70;99.90
9385;DHT22;4732;49.340;10.886;2023-08-21T04:22:15;21.60;99.90
9385;DHT22;4732;49.340;10.886;2023-08-21T04:24:41;21.60;99.90
9385;DHT22;4732;49.340;10.886;2023-08-21T04:27:07;21.60;99.90
9385;DHT22;4732;49.340;10.886;2023-08-21T04:29:33;21.60;99.90
9385;DHT22;4732;49.340;10.886;2023-08-21T04:31:58;21.60;99.90
9385;DHT22;4732;49.340;10.886;2023-08-21T04:34:23;21.60;99.90
9385;DHT22;4732;49.340;10.886;2023-08-21T04:36:49;21.60;99.90
9385;DHT22;4732;49.340;10.886;2023-08-21T04:39:15;21.50;99.90
9385;DHT22;4732;49.340;10.886;2023-08-21T04:41:41;21.60;99.90
9385;DHT22;4732;49.340;10.886;2023-08-21T04:44:07;21.70;99.90
9385;DHT22;4732;49.340;10.886;2023-08-21T04:46:32;21.70;99.90
9385;DHT22;4732;49.340;10.886;2023-08-21T04:48:58;21.70;99.90
9385;DHT22;4732;49.340;10.886;2023-08-21T04:51:24;21.60;99.90
9385;DHT22;4732;49.340;10.886;2023-08-21T04:53:49;21.60;99.90
9385;DHT22;4732;49.340;10.886;2023-08-21T04:56:15;21.50;99.90
9385;DHT22;4732;49.340;10.886;2023-08-21T04:58:40;21.50;99.90
9385;DHT22;4732;49.340;10.886;2023-08-21T05:01:06;21.50;99.90
9385;DHT22;4732;49.340;10.886;2023-08-21T05:03:31;21.50;99.90
9385;DHT22;4732;49.340;10.886;2023-08-21T05:05:57;21.30;99.90
9385;DHT22;4732;49.340;10.886;2023-08-21T05:08:24;21.40;99.90
9385;DHT22;4732;49.340;10.886;2023-08-21T05:10:57;21.40;99.90
9385;DHT22;4732;49.340;10.886;2023-08-21T05:13:23;21.50;99.90
9385;DHT22;4732;49.340;10.886;2023-08-21T05:15:55;21.40;99.90
9385;DHT22;4732;49.340;10.886;2023-08-21T05:18:22;21.50;99.90
9385;DHT22;4732;49.340;10.886;2023-08-21T05:20:49;21.60;99.90
9385;DHT22;4732;49.340;10.886;2023-08-21T05:23:15;21.70;99.90
9385;DHT22;4732;49.340;10.886;2023-08-21T05:25:42;21.90;99.90
9385;DHT22;4732;49.340;10.886;2023-08-21T05:28:07;21.80;99.90
9385;DHT22;4732;49.340;10.886;2023-08-21T05:30:35;21.80;99.90
9385;DHT22;4732;49.340;10.886;2023-08-21T05:33:01;21.90;99.90
9385;DHT22;4732;49.340;10.886;2023-08-21T05:35:27;22.00;99.90
9385;DHT22;4732;49.340;10.886;2023-08-21T05:37:52;22.20;99.90
9385;DHT22;4732;49.340;10.886;2023-08-21T05:40:18;22.20;99.90
9385;DHT22;4732;49.340;10.886;2023-08-21T05:42:44;22.20;99.90
9385;DHT22;4732;49.340;10.886;2023-08-21T05:45:10;22.30;99.90
9385;DHT22;4732;49.340;10.886;2023-08-21T05:47:35;22.30;99.90
9385;DHT22;4732;49.340;10.886;2023-08-21T05:50:01;22.40;99.90
9385;DHT22;4732;49.340;10.886;2023-08-21T05:52:27;22.40;99.90
9385;DHT22;4732;49.340;10.886;2023-08-21T05:54:52;22.40;99.90
9385;DHT22;4732;49.340;10.886;2023-08-21T05:57:18;22.50;99.90
9385;DHT22;4732;49.340;10.886;2023-08-21T05:59:45;22.60;99.90
9385;DHT22;4732;49.340;10.886;2023-08-21T06:02:12;22.70;99.90
9385;DHT22;4732;49.340;10.886;2023-08-21T06:04:40;22.90;99.90
9385;DHT22;4732;49.340;10.886;2023-08-21T06:07:06;23.10;99.90
9385;DHT22;4732;49.340;10.886;2023-08-21T06:09:31;23.10;99.90
9385;DHT22;4732;49.340;10.886;2023-08-21T06:12:02;23.40;99.90
9385;DHT22;4732;49.340;10.886;2023-08-21T06:14:28;23.40;99.90
9385;DHT22;4732;49.340;10.886;2023-08-21T06:16:58;23.40;99.90
9385;DHT22;4732;49.340;10.886;2023-08-21T06:19:24;23.50;99.90
9385;DHT22;4732;49.340;10.886;2023-08-21T06:21:49;23.70;99.90
9385;DHT22;4732;49.340;10.886;2023-08-21T06:24:15;23.80;99.90
9385;DHT22;4732;49.340;10.886;2023-08-21T06:26:40;23.80;99.90
9385;DHT22;4732;49.340;10.886;2023-08-21T06:29:06;23.80;99.90
9385;DHT22;4732;49.340;10.886;2023-08-21T06:31:31;23.90;99.90
9385;DHT22;4732;49.340;10.886;2023-08-21T06:33:57;24.20;99.90
9385;DHT22;4732;49.340;10.886;2023-08-21T06:36:23;24.10;99.90
9385;DHT22;4732;49.340;10.886;2023-08-21T06:38:48;24.00;99.90
9385;DHT22;4732;49.340;10.886;2023-08-21T06:41:14;23.90;99.90
9385;DHT22;4732;49.340;10.886;2023-08-21T06:43:39;23.90;99.90
9385;DHT22;4732;49.340;10.886;2023-08-21T06:46:05;23.90;99.90
9385;DHT22;4732;49.340;10.886;2023-08-21T06:48:30;24.00;99.90
9385;DHT22;4732;49.340;10.886;2023-08-21T06:50:56;24.10;99.90
9385;DHT22;4732;49.340;10.886;2023-08-21T06:53:22;24.30;99.90
9385;DHT22;4732;49.340;10.886;2023-08-21T06:55:47;24.40;99.90
9385;DHT22;4732;49.340;10.886;2023-08-21T06:58:13;24.50;99.90
9385;DHT22;4732;49.340;10.886;2023-08-21T07:00:39;24.60;99.90
9385;DHT22;4732;49.340;10.886;2023-08-21T07:03:04;24.70;99.90
9385;DHT22;4732;49.340;10.886;2023-08-21T07:05:35;24.80;99.90
9385;DHT22;4732;49.340;10.886;2023-08-21T07:08:01;24.90;99.90
9385;DHT22;4732;49.340;10.886;2023-08-21T07:10:26;25.00;99.90
9385;DHT22;4732;49.340;10.886;2023-08-21T07:12:53;24.80;99.90
9385;DHT22;4732;49.340;10.886;2023-08-21T07:15:19;24.90;99.90
9385;DHT22;4732;49.340;10.886;2023-08-21T07:17:44;24.80;99.90
9385;DHT22;4732;49.340;10.886;2023-08-21T07:20:10;24.90;99.90
9385;DHT22;4732;49.340;10.886;2023-08-21T07:22:36;25.00;99.90
9385;DHT22;4732;49.340;10.886;2023-08-21T07:25:01;25.20;99.90
9385;DHT22;4732;49.340;10.886;2023-08-21T07:27:30;25.40;99.90
9385;DHT22;4732;49.340;10.886;2023-08-21T07:29:56;25.50;99.90
9385;DHT22;4732;49.340;10.886;2023-08-21T07:32:22;25.70;99.90
9385;DHT22;4732;49.340;10.886;2023-08-21T07:34:47;25.80;99.90
9385;DHT22;4732;49.340;10.886;2023-08-21T07:37:13;26.00;99.90
9385;DHT22;4732;49.340;10.886;2023-08-21T07:39:38;26.10;99.90
9385;DHT22;4732;49.340;10.886;2023-08-21T07:42:04;26.30;99.90
9385;DHT22;4732;49.340;10.886;2023-08-21T07:44:30;26.40;99.90
9385;DHT22;4732;49.340;10.886;2023-08-21T07:46:55;26.50;99.90
9385;DHT22;4732;49.340;10.886;2023-08-21T07:49:21;26.70;99.90
9385;DHT22;4732;49.340;10.886;2023-08-21T07:51:46;26.90;99.90
9385;DHT22;4732;49.340;10.886;2023-08-21T07:54:11;26.80;99.90
9385;DHT22;4732;49.340;10.886;2023-08-21T07:56:37;27.00;99.90
9385;DHT22;4732;49.340;10.886;2023-08-21T07:59:04;27.10;99.90
9385;DHT22;4732;49.340;10.886;2023-08-21T08:01:30;27.30;99.90
9385;DHT22;4732;49.340;10.886;2023-08-21T08:03:56;27.30;99.90
9385;DHT22;4732;49.340;10.886;2023-08-21T08:06:21;27.30;99.90
9385;DHT22;4732;49.340;10.886;2023-08-21T08:08:47;27.30;99.90
9385;DHT22;4732;49.340;10.886;2023-08-21T08:11:12;27.40;99.90
9385;DHT22;4732;49.340;10.886;2023-08-21T08:13:38;27.40;99.90
9385;DHT22;4732;49.340;10.886;2023-08-21T08:16:03;27.60;99.90
9385;DHT22;4732;49.340;10.886;2023-08-21T08:18:29;27.60;99.90
9385;DHT22;4732;49.340;10.886;2023-08-21T08:20:54;27.70;99.90
9385;DHT22;4732;49.340;10.886;2023-08-21T08:23:20;27.70;99.90
9385;DHT22;4732;49.340;10.886;2023-08-21T08:25:45;27.80;99.90
9385;DHT22;4732;49.340;10.886;2023-08-21T08:28:11;27.90;99.90
9385;DHT22;4732;49.340;10.886;2023-08-21T08:30:36;27.70;99.90
9385;DHT22;4732;49.340;10.886;2023-08-21T08:33:02;27.60;99.90
9385;DHT22;4732;49.340;10.886;2023-08-21T08:35:28;27.40;99.90
9385;DHT22;4732;49.340;10.886;2023-08-21T08:37:53;27.10;99.90
9385;DHT22;4732;49.340;10.886;2023-08-21T08:40:19;27.20;99.90
9385;DHT22;4732;49.340;10.886;2023-08-21T08:42:44;27.10;99.90
9385;DHT22;4732;49.340;10.886;2023-08-21T08:45:12;27.30;99.90
9385;DHT22;4732;49.340;10.886;2023-08-21T08:47:39;27.60;99.90
9385;DHT22;4732;49.340;10.886;2023-08-21T08:50:07;27.80;99.90
9385;DHT22;4732;49.340;10.886;2023-08-21T08:52:37;27.90;99.90
9385;DHT22;4732;49.340;10.886;2023-08-21T08:55:04;28.20;99.90
9385;DHT22;4732;49.340;10.886;2023-08-21T08:57:30;28.30;99.90
9385;DHT22;4732;49.340;10.886;2023-08-21T08:59:55;28.40;99.90
9385;DHT22;4732;49.340;10.886;2023-08-21T09:02:21;28.50;99.90
9385;DHT22;4732;49.340;10.886;2023-08-21T09:04:46;28.50;99.90
9385;DHT22;4732;49.340;10.886;2023-08-21T09:07:12;28.70;99.90
9385;DHT22;4732;49.340;10.886;2023-08-21T09:09:45;28.70;99.90
9385;DHT22;4732;49.340;10.886;2023-08-21T09:12:12;28.80;99.90
9385;DHT22;4732;49.340;10.886;2023-08-21T09:14:39;28.90;99.90
9385;DHT22;4732;49.340;10.886;2023-08-21T09:17:05;29.00;99.90
9385;DHT22;4732;49.340;10.886;2023-08-21T09:19:31;29.10;99.90
9385;DHT22;4732;49.340;10.886;2023-08-21T09:21:57;29.30;99.90
9385;DHT22;4732;49.340;10.886;2023-08-21T09:24:23;29.50;99.90
9385;DHT22;4732;49.340;10.886;2023-08-21T09:26:50;29.50;99.90
9385;DHT22;4732;49.340;10.886;2023-08-21T09:29:15;29.60;99.90
9385;DHT22;4732;49.340;10.886;2023-08-21T09:31:41;29.70;99.90
9385;DHT22;4732;49.340;10.886;2023-08-21T09:34:09;29.80;99.90
9385;DHT22;4732;49.340;10.886;2023-08-21T09:36:34;29.80;99.90
9385;DHT22;4732;49.340;10.886;2023-08-21T09:39:01;29.80;99.90
9385;DHT22;4732;49.340;10.886;2023-08-21T09:41:28;29.90;99.90
9385;DHT22;4732;49.340;10.886;2023-08-21T09:43:58;29.90;99.90
9385;DHT22;4732;49.340;10.886;2023-08-21T09:46:26;30.00;99.90
9385;DHT22;4732;49.340;10.886;2023-08-21T09:48:53;30.10;99.90
9385;DHT22;4732;49.340;10.886;2023-08-21T09:51:19;30.20;99.90
9385;DHT22;4732;49.340;10.886;2023-08-21T09:53:45;30.20;99.90
9385;DHT22;4732;49.340;10.886;2023-08-21T09:56:12;30.30;99.90
9385;DHT22;4732;49.340;10.886;2023-08-21T09:58:37;30.50;99.90
9385;DHT22;4732;49.340;10.886;2023-08-21T10:01:07;30.60;99.90
9385;DHT22;4732;49.340;10.886;2023-08-21T10:03:41;30.60;99.90
9385;DHT22;4732;49.340;10.886;2023-08-21T10:06:08;30.60;99.90
9385;DHT22;4732;49.340;10.886;2023-08-21T10:08:38;30.80;99.90
9385;DHT22;4732;49.340;10.886;2023-08-21T10:11:08;30.80;99.90
9385;DHT22;4732;49.340;10.886;2023-08-21T10:13:36;30.90;99.90
9385;DHT22;4732;49.340;10.886;2023-08-21T10:16:04;31.00;99.90
9385;DHT22;4732;49.340;10.886;2023-08-21T10:18:36;31.10;99.90
9385;DHT22;4732;49.340;10.886;2023-08-21T10:21:16;31.10;99.90
9385;DHT22;4732;49.340;10.886;2023-08-21T10:23:42;31.00;99.90
9385;DHT22;4732;49.340;10.886;2023-08-21T10:26:11;31.10;99.90
9385;DHT22;4732;49.340;10.886;2023-08-21T10:28:53;31.30;99.90
9385;DHT22;4732;49.340;10.886;2023-08-21T10:31:33;31.50;99.90
9385;DHT22;4732;49.340;10.886;2023-08-21T10:34:22;31.60;99.90
9385;DHT22;4732;49.340;10.886;2023-08-21T10:39:33;31.90;99.90
9385;DHT22;4732;49.340;10.886;2023-08-21T10:42:19;31.90;99.90
9385;DHT22;4732;49.340;10.886;2023-08-21T10:44:52;31.90;99.90
9385;DHT22;4732;49.340;10.886;2023-08-21T10:47:19;32.00;99.90
9385;DHT22;4732;49.340;10.886;2023-08-21T10:49:46;32.10;99.90
9385;DHT22;4732;49.340;10.886;2023-08-21T10:52:12;32.10;99.90
9385;DHT22;4732;49.340;10.886;2023-08-21T10:54:48;32.10;99.90
9385;DHT22;4732;49.340;10.886;2023-08-21T10:57:15;32.00;99.90
9385;DHT22;4732;49.340;10.886;2023-08-21T10:59:51;31.80;99.90
9385;DHT22;4732;49.340;10.886;2023-08-21T11:02:17;31.70;99.90
9385;DHT22;4732;49.340;10.886;2023-08-21T11:04:43;31.80;99.90
9385;DHT22;4732;49.340;10.886;2023-08-21T11:07:10;31.80;99.90
9385;DHT22;4732;49.340;10.886;2023-08-21T11:09:36;31.90;99.90
9385;DHT22;4732;49.340;10.886;2023-08-21T11:12:13;31.90;99.90
9385;DHT22;4732;49.340;10.886;2023-08-21T11:14:40;32.10;99.90
9385;DHT22;4732;49.340;10.886;2023-08-21T11:17:07;32.40;99.90
9385;DHT22;4732;49.340;10.886;2023-08-21T11:19:33;32.50;99.90
9385;DHT22;4732;49.340;10.886;2023-08-21T11:22:00;32.60;99.90
9385;DHT22;4732;49.340;10.886;2023-08-21T11:27:04;32.90;99.90
9385;DHT22;4732;49.340;10.886;2023-08-21T11:29:37;33.20;99.90
9385;DHT22;4732;49.340;10.886;2023-08-21T11:32:17;33.20;99.90
9385;DHT22;4732;49.340;10.886;2023-08-21T11:34:54;33.20;99.90
9385;DHT22;4732;49.340;10.886;2023-08-21T11:37:22;33.20;99.90
9385;DHT22;4732;49.340;10.886;2023-08-21T11:39:50;33.30;99.90
9385;DHT22;4732;49.340;10.886;2023-08-21T11:42:20;33.20;99.90
9385;DHT22;4732;49.340;10.886;2023-08-21T11:44:49;33.50;99.90
9385;DHT22;4732;49.340;10.886;2023-08-21T11:47:18;33.60;99.90
9385;DHT22;4732;49.340;10.886;2023-08-21T11:49:45;33.90;99.90
9385;DHT22;4732;49.340;10.886;2023-08-21T11:52:13;33.90;99.90
9385;DHT22;4732;49.340;10.886;2023-08-21T11:54:40;34.00;99.90
9385;DHT22;4732;49.340;10.886;2023-08-21T11:57:07;34.20;99.90
9385;DHT22;4732;49.340;10.886;2023-08-21T11:59:33;34.00;99.90
9385;DHT22;4732;49.340;10.886;2023-08-21T12:01:58;34.10;99.90
9385;DHT22;4732;49.340;10.886;2023-08-21T12:04:25;34.50;99.90
9385;DHT22;4732;49.340;10.886;2023-08-21T12:06:50;34.80;99.90
9385;DHT22;4732;49.340;10.886;2023-08-21T12:09:16;34.90;99.90
9385;DHT22;4732;49.340;10.886;2023-08-21T12:11:44;35.10;99.90
9385;DHT22;4732;49.340;10.886;2023-08-21T12:14:09;35.00;99.90
9385;DHT22;4732;49.340;10.886;2023-08-21T12:16:36;35.20;99.90
9385;DHT22;4732;49.340;10.886;2023-08-21T12:19:01;35.20;99.90
9385;DHT22;4732;49.340;10.886;2023-08-21T12:21:28;35.20;99.90
9385;DHT22;4732;49.340;10.886;2023-08-21T12:23:54;34.80;99.90
9385;DHT22;4732;49.340;10.886;2023-08-21T12:26:19;34.20;99.90
9385;DHT22;4732;49.340;10.886;2023-08-21T12:28:48;34.10;99.90
9385;DHT22;4732;49.340;10.886;2023-08-21T12:31:14;34.10;99.90
9385;DHT22;4732;49.340;10.886;2023-08-21T12:33:40;34.20;99.90
9385;DHT22;4732;49.340;10.886;2023-08-21T12:36:06;34.30;99.90
9385;DHT22;4732;49.340;10.886;2023-08-21T12:38:31;34.40;99.90
9385;DHT22;4732;49.340;10.886;2023-08-21T12:40:58;34.60;99.90
9385;DHT22;4732;49.340;10.886;2023-08-21T12:43:23;34.80;99.90
9385;DHT22;4732;49.340;10.886;2023-08-21T12:45:49;35.00;99.90
9385;DHT22;4732;49.340;10.886;2023-08-21T12:48:14;35.00;99.90
9385;DHT22;4732;49.340;10.886;2023-08-21T12:50:40;35.20;99.90
9385;DHT22;4732;49.340;10.886;2023-08-21T12:53:05;35.20;99.90
9385;DHT22;4732;49.340;10.886;2023-08-21T12:55:31;35.00;99.90
9385;DHT22;4732;49.340;10.886;2023-08-21T12:57:57;35.10;99.90
9385;DHT22;4732;49.340;10.886;2023-08-21T13:00:22;35.10;99.90
9385;DHT22;4732;49.340;10.886;2023-08-21T13:02:48;35.00;99.90
9385;DHT22;4732;49.340;10.886;2023-08-21T13:05:14;35.00;99.90
9385;DHT22;4732;49.340;10.886;2023-08-21T13:07:41;34.80;99.90
9385;DHT22;4732;49.340;10.886;2023-08-21T13:10:07;34.50;99.90
9385;DHT22;4732;49.340;10.886;2023-08-21T13:12:33;34.50;99.90
9385;DHT22;4732;49.340;10.886;2023-08-21T13:14:58;34.80;99.90
9385;DHT22;4732;49.340;10.886;2023-08-21T13:17:24;34.60;99.90
9385;DHT22;4732;49.340;10.886;2023-08-21T13:19:49;34.70;99.90
9385;DHT22;4732;49.340;10.886;2023-08-21T13:22:17;35.00;99.90
9385;DHT22;4732;49.340;10.886;2023-08-21T13:24:42;35.30;99.90
9385;DHT22;4732;49.340;10.886;2023-08-21T13:27:08;35.60;99.90
9385;DHT22;4732;49.340;10.886;2023-08-21T13:29:33;36.00;99.90
9385;DHT22;4732;49.340;10.886;2023-08-21T13:31:59;36.10;99.90
9385;DHT22;4732;49.340;10.886;2023-08-21T13:34:24;36.00;99.90
9385;DHT22;4732;49.340;10.886;2023-08-21T13:36:50;36.00;99.90
9385;DHT22;4732;49.340;10.886;2023-08-21T13:39:16;35.90;99.90
9385;DHT22;4732;49.340;10.886;2023-08-21T13:41:42;35.60;99.90
9385;DHT22;4732;49.340;10.886;2023-08-21T13:44:07;35.50;99.90
9385;DHT22;4732;49.340;10.886;2023-08-21T13:46:34;35.30;99.90
9385;DHT22;4732;49.340;10.886;2023-08-21T13:48:59;35.50;99.90
9385;DHT22;4732;49.340;10.886;2023-08-21T13:51:25;35.50;99.90
9385;DHT22;4732;49.340;10.886;2023-08-21T13:53:51;35.10;99.90
9385;DHT22;4732;49.340;10.886;2023-08-21T13:56:16;34.40;99.90
9385;DHT22;4732;49.340;10.886;2023-08-21T13:58:42;34.00;99.90
9385;DHT22;4732;49.340;10.886;2023-08-21T14:01:08;34.10;99.90
9385;DHT22;4732;49.340;10.886;2023-08-21T14:03:34;34.00;99.90
9385;DHT22;4732;49.340;10.886;2023-08-21T14:05:59;33.80;99.90
9385;DHT22;4732;49.340;10.886;2023-08-21T14:08:25;33.90;99.90
9385;DHT22;4732;49.340;10.886;2023-08-21T14:10:50;34.10;99.90
9385;DHT22;4732;49.340;10.886;2023-08-21T14:13:16;34.60;99.90
9385;DHT22;4732;49.340;10.886;2023-08-21T14:15:41;35.10;99.90
9385;DHT22;4732;49.340;10.886;2023-08-21T14:18:07;35.40;99.90
9385;DHT22;4732;49.340;10.886;2023-08-21T14:20:32;35.90;99.90
9385;DHT22;4732;49.340;10.886;2023-08-21T14:22:58;35.40;99.90
9385;DHT22;4732;49.340;10.886;2023-08-21T14:25:24;35.00;99.90
9385;DHT22;4732;49.340;10.886;2023-08-21T14:27:49;35.00;99.90
9385;DHT22;4732;49.340;10.886;2023-08-21T14:30:15;35.00;99.90
9385;DHT22;4732;49.340;10.886;2023-08-21T14:32:41;35.00;99.90
9385;DHT22;4732;49.340;10.886;2023-08-21T14:35:08;35.10;99.90
9385;DHT22;4732;49.340;10.886;2023-08-21T14:37:35;35.20;99.90
9385;DHT22;4732;49.340;10.886;2023-08-21T14:40:01;35.40;99.90
9385;DHT22;4732;49.340;10.886;2023-08-21T14:42:31;35.20;99.90
9385;DHT22;4732;49.340;10.886;2023-08-21T14:44:57;35.40;99.90
9385;DHT22;4732;49.340;10.886;2023-08-21T14:47:22;35.50;99.90
9385;DHT22;4732;49.340;10.886;2023-08-21T14:49:48;35.40;99.90
9385;DHT22;4732;49.340;10.886;2023-08-21T14:52:13;35.80;99.90
9385;DHT22;4732;49.340;10.886;2023-08-21T14:54:39;35.50;99.90
9385;DHT22;4732;49.340;10.886;2023-08-21T14:57:04;35.60;99.90
9385;DHT22;4732;49.340;10.886;2023-08-21T14:59:30;35.80;99.90
9385;DHT22;4732;49.340;10.886;2023-08-21T15:01:56;35.80;99.90
9385;DHT22;4732;49.340;10.886;2023-08-21T15:04:22;36.20;99.90
9385;DHT22;4732;49.340;10.886;2023-08-21T15:06:47;35.60;99.90
9385;DHT22;4732;49.340;10.886;2023-08-21T15:09:13;36.00;99.90
9385;DHT22;4732;49.340;10.886;2023-08-21T15:11:38;35.50;99.90
9385;DHT22;4732;49.340;10.886;2023-08-21T15:14:09;34.70;99.90
9385;DHT22;4732;49.340;10.886;2023-08-21T15:16:36;34.30;99.90
9385;DHT22;4732;49.340;10.886;2023-08-21T15:19:02;34.10;99.90
9385;DHT22;4732;49.340;10.886;2023-08-21T15:21:28;34.70;99.90
9385;DHT22;4732;49.340;10.886;2023-08-21T15:23:54;34.20;99.90
9385;DHT22;4732;49.340;10.886;2023-08-21T15:26:20;34.40;99.90
9385;DHT22;4732;49.340;10.886;2023-08-21T15:28:46;34.50;99.90
9385;DHT22;4732;49.340;10.886;2023-08-21T15:31:12;35.30;99.90
9385;DHT22;4732;49.340;10.886;2023-08-21T15:33:37;34.80;99.90
9385;DHT22;4732;49.340;10.886;2023-08-21T15:36:03;35.10;99.90
9385;DHT22;4732;49.340;10.886;2023-08-21T15:38:29;34.70;99.90
9385;DHT22;4732;49.340;10.886;2023-08-21T15:40:54;35.00;99.90
9385;DHT22;4732;49.340;10.886;2023-08-21T15:43:20;35.20;99.90
9385;DHT22;4732;49.340;10.886;2023-08-21T15:45:46;35.10;99.90
9385;DHT22;4732;49.340;10.886;2023-08-21T15:48:11;34.70;99.90
9385;DHT22;4732;49.340;10.886;2023-08-21T15:50:37;35.10;99.90
9385;DHT22;4732;49.340;10.886;2023-08-21T15:53:02;35.00;99.90
9385;DHT22;4732;49.340;10.886;2023-08-21T15:55:28;34.60;99.90
9385;DHT22;4732;49.340;10.886;2023-08-21T15:57:53;34.80;99.90
9385;DHT22;4732;49.340;10.886;2023-08-21T16:00:19;35.00;99.90
9385;DHT22;4732;49.340;10.886;2023-08-21T16:02:47;34.60;99.90
9385;DHT22;4732;49.340;10.886;2023-08-21T16:05:13;35.00;99.90
9385;DHT22;4732;49.340;10.886;2023-08-21T16:07:38;35.20;99.90
9385;DHT22;4732;49.340;10.886;2023-08-21T16:10:08;35.00;99.90
9385;DHT22;4732;49.340;10.886;2023-08-21T16:12:34;34.40;99.90
9385;DHT22;4732;49.340;10.886;2023-08-21T16:14:59;34.60;99.90
9385;DHT22;4732;49.340;10.886;2023-08-21T16:17:25;34.40;99.90
9385;DHT22;4732;49.340;10.886;2023-08-21T16:19:50;34.10;99.90
9385;DHT22;4732;49.340;10.886;2023-08-21T16:22:16;33.50;99.90
9385;DHT22;4732;49.340;10.886;2023-08-21T16:24:41;33.40;99.90
9385;DHT22;4732;49.340;10.886;2023-08-21T16:27:07;33.10;99.90
9385;DHT22;4732;49.340;10.886;2023-08-21T16:29:32;32.80;99.90
9385;DHT22;4732;49.340;10.886;2023-08-21T16:31:58;33.00;99.90
9385;DHT22;4732;49.340;10.886;2023-08-21T16:34:24;32.50;99.90
9385;DHT22;4732;49.340;10.886;2023-08-21T16:36:49;32.30;99.90
9385;DHT22;4732;49.340;10.886;2023-08-21T16:39:15;32.30;99.90
9385;DHT22;4732;49.340;10.886;2023-08-21T16:41:41;32.20;99.90
9385;DHT22;4732;49.340;10.886;2023-08-21T16:44:07;32.20;99.90
9385;DHT22;4732;49.340;10.886;2023-08-21T16:46:32;32.40;99.90
9385;DHT22;4732;49.340;10.886;2023-08-21T16:48:58;32.00;99.90
9385;DHT22;4732;49.340;10.886;2023-08-21T16:51:24;32.10;99.90
9385;DHT22;4732;49.340;10.886;2023-08-21T16:53:49;32.00;99.90
9385;DHT22;4732;49.340;10.886;2023-08-21T16:56:16;31.90;99.90
9385;DHT22;4732;49.340;10.886;2023-08-21T16:58:41;31.80;99.90
9385;DHT22;4732;49.340;10.886;2023-08-21T17:01:07;32.00;99.90
9385;DHT22;4732;49.340;10.886;2023-08-21T17:03:32;31.70;99.90
9385;DHT22;4732;49.340;10.886;2023-08-21T17:05:58;31.20;99.90
9385;DHT22;4732;49.340;10.886;2023-08-21T17:08:23;31.10;99.90
9385;DHT22;4732;49.340;10.886;2023-08-21T17:10:49;30.90;99.90
9385;DHT22;4732;49.340;10.886;2023-08-21T17:13:14;30.70;99.90
9385;DHT22;4732;49.340;10.886;2023-08-21T17:15:40;31.20;99.90
9385;DHT22;4732;49.340;10.886;2023-08-21T17:18:05;31.20;99.90
9385;DHT22;4732;49.340;10.886;2023-08-21T17:20:32;30.90;99.90
9385;DHT22;4732;49.340;10.886;2023-08-21T17:22:58;31.00;99.90
9385;DHT22;4732;49.340;10.886;2023-08-21T17:25:23;31.10;99.90
9385;DHT22;4732;49.340;10.886;2023-08-21T17:27:49;30.80;99.90
9385;DHT22;4732;49.340;10.886;2023-08-21T17:30:15;30.70;99.90
9385;DHT22;4732;49.340;10.886;2023-08-21T17:32:41;30.70;99.90
9385;DHT22;4732;49.340;10.886;2023-08-21T17:35:06;30.60;99.90
9385;DHT22;4732;49.340;10.886;2023-08-21T17:37:32;30.50;99.90
9385;DHT22;4732;49.340;10.886;2023-08-21T17:39:58;30.50;99.90
9385;DHT22;4732;49.340;10.886;2023-08-21T17:42:25;30.50;99.90
9385;DHT22;4732;49.340;10.886;2023-08-21T17:44:51;30.40;99.90
9385;DHT22;4732;49.340;10.886;2023-08-21T17:47:16;30.30;99.90
9385;DHT22;4732;49.340;10.886;2023-08-21T17:49:44;30.10;99.90
9385;DHT22;4732;49.340;10.886;2023-08-21T17:52:09;30.20;99.90
9385;DHT22;4732;49.340;10.886;2023-08-21T17:54:35;29.90;99.90
9385;DHT22;4732;49.340;10.886;2023-08-21T17:57:00;30.00;99.90
9385;DHT22;4732;49.340;10.886;2023-08-21T17:59:26;29.70;99.90
9385;DHT22;4732;49.340;10.886;2023-08-21T18:01:51;29.20;99.90
9385;DHT22;4732;49.340;10.886;2023-08-21T18:04:20;29.00;99.90
9385;DHT22;4732;49.340;10.886;2023-08-21T18:06:45;28.70;99.90
9385;DHT22;4732;49.340;10.886;2023-08-21T18:09:11;28.90;99.90
9385;DHT22;4732;49.340;10.886;2023-08-21T18:11:36;28.30;99.90
9385;DHT22;4732;49.340;10.886;2023-08-21T18:14:02;28.10;99.90
9385;DHT22;4732;49.340;10.886;2023-08-21T18:16:28;27.80;99.90
9385;DHT22;4732;49.340;10.886;2023-08-21T18:18:56;27.80;99.90
9385;DHT22;4732;49.340;10.886;2023-08-21T18:21:22;27.80;99.90
9385;DHT22;4732;49.340;10.886;2023-08-21T18:23:47;27.60;99.90
9385;DHT22;4732;49.340;10.886;2023-08-21T18:26:13;27.60;99.90
9385;DHT22;4732;49.340;10.886;2023-08-21T18:28:39;27.30;99.90
9385;DHT22;4732;49.340;10.886;2023-08-21T18:31:05;27.20;99.90
9385;DHT22;4732;49.340;10.886;2023-08-21T18:33:30;27.30;99.90
9385;DHT22;4732;49.340;10.886;2023-08-21T18:35:58;27.10;99.90
9385;DHT22;4732;49.340;10.886;2023-08-21T18:38:24;27.10;99.90
9385;DHT22;4732;49.340;10.886;2023-08-21T18:40:50;27.10;99.90
9385;DHT22;4732;49.340;10.886;2023-08-21T18:43:18;26.80;99.90
9385;DHT22;4732;49.340;10.886;2023-08-21T18:45:43;26.60;99.90
9385;DHT22;4732;49.340;10.886;2023-08-21T18:50:39;26.40;99.90